Pagrindinis puslapis
METAR-TAF:

METAR-TAF

Oro uostai :

Rafha, Saudo Arabija

platuma: 29-37N, ilguma: 043-29E, Aukštis: 449 m

Dabartinis oras

Ataskaita buvo paskelbta 1 valandą ir 1 minutes, ne 00:00 UTC
Vėjas 5 kt iš Šiaurės/Šiaurės Vakarų
Temperatūra 26°C
Drėgmė 20%
Slėgis 1008 hPa
Matomumas 10 km arba daugiau
nėra debesų žemiau 1500 m ir nėra kamuolinių lietaus debesų

METAR: OERF 240000Z 33005KT CAVOK 26/01 Q1008 NOSIG

Laikas: 04:01 (01:01 UTC)

Prognozė

Ataskaita buvo paskelbta 2 valandos ir 1 minutes, ne 23:00 UTC
Prognozė galioja nuo 24 metu 00 UTC su 25 metu 06 UTC
Vėjas 3 kt nuo kintamojo kryptimis
Matomumas 10 km arba daugiau
nėra debesų žemiau 1500 m ir nėra kamuolinių lietaus debesų
Tapsmas
nuo 24 metu 06 UTC su 24 metu 08 UTC
Vėjas 10 kt iš Šiaurės
Tapsmas
nuo 24 metu 20 UTC su 24 metu 22 UTC
Vėjas 3 kt nuo kintamojo kryptimis

TAF: OERF 232300Z 2400/2506 VRB03KT CAVOK BECMG 2406/2408 35010KT BECMG 2420/2422 VRB03KT

Orai ataskaitas ir orų prognozės (METAR, TAF).

turimą stotys yra geltonos ir raudonos taškus žemėlapyje.

Perkelti pele per norėdami pamatyti stoties vardą.

Tada spustelėkite, norėdami matyti oro stebėjimo ir prognozės.

Norėdami pakeisti žemėlapį: spustelėkite ant žalios mygtukų su juodo kryžiaus žemyn,; žalią mygtuką su brūkšneliu, jei norite nutolinti; arba žalių rodyklių gretimoms žemėlapius.


METAR-TAF: